createdAt,value
2019-04-11T00:01:35.039Z,102105.97
2019-04-11T00:03:54.028Z,102099.25
2019-04-11T00:06:23.562Z,102110.14
2019-04-11T00:08:53.008Z,102107.55
2019-04-11T00:11:24.039Z,102115.69
2019-04-11T00:13:53.649Z,102113.35
2019-04-11T00:16:23.516Z,102112.59
2019-04-11T00:18:54.717Z,102118.81
2019-04-11T00:21:24.615Z,102120.11
2019-04-11T00:23:54.502Z,102116.14
2019-04-11T00:26:24.400Z,102120.61
2019-04-11T00:28:54.216Z,102115.81
2019-04-11T00:31:23.654Z,102113.21
2019-04-11T00:33:54.183Z,102119.30
2019-04-11T00:36:24.211Z,102112.42
2019-04-11T00:38:55.180Z,102109.91
2019-04-11T00:41:24.604Z,102115.15
2019-04-11T00:43:54.657Z,102105.85
2019-04-11T00:46:24.551Z,102114.91
2019-04-11T00:48:54.499Z,102107.97
2019-04-11T00:51:23.890Z,102108.38
2019-04-11T00:53:54.142Z,102109.42
2019-04-11T00:56:24.150Z,102110.00
2019-04-11T00:58:54.025Z,102111.46
2019-04-11T01:01:24.022Z,102108.91
2019-04-11T01:03:54.211Z,102109.45
2019-04-11T01:06:23.501Z,102109.31
2019-04-11T01:08:53.700Z,102104.39
2019-04-11T01:11:23.793Z,102113.52
2019-04-11T01:13:55.364Z,102106.83
2019-04-11T01:16:26.315Z,102112.34
2019-04-11T01:18:55.615Z,102110.70
2019-04-11T01:21:24.913Z,102108.87
2019-04-11T01:23:55.239Z,102112.27
2019-04-11T01:26:25.373Z,102114.22
2019-04-11T01:28:55.920Z,102113.08
2019-04-11T01:31:27.351Z,102108.42
2019-04-11T01:33:57.083Z,102115.94
2019-04-11T01:36:26.978Z,102112.16
2019-04-11T01:39:15.241Z,102110.20
2019-04-11T01:41:44.991Z,102110.12
2019-04-11T01:44:14.527Z,102117.98
2019-04-11T01:46:44.443Z,102118.31
2019-04-11T01:49:22.674Z,102115.96
2019-04-11T01:51:52.137Z,102115.81
2019-04-11T01:54:21.797Z,102119.61
2019-04-11T01:56:51.621Z,102122.36
2019-04-11T01:59:21.604Z,102129.70
2019-04-11T02:02:05.392Z,102134.00
2019-04-11T02:04:46.053Z,102135.63
2019-04-11T02:07:15.567Z,102135.48
2019-04-11T02:09:44.969Z,102137.33
2019-04-11T02:12:14.355Z,102140.80
2019-04-11T02:14:43.962Z,102143.47
2019-04-11T02:17:13.359Z,102143.54
2019-04-11T02:19:42.762Z,102137.39
2019-04-11T02:22:32.725Z,102143.38
2019-04-11T02:25:13.003Z,102137.88
2019-04-11T02:27:42.390Z,102141.85
2019-04-11T02:30:14.351Z,102142.72
2019-04-11T02:32:44.911Z,102140.55
2019-04-11T02:35:15.393Z,102139.02
2019-04-11T02:37:47.649Z,102148.13
2019-04-11T02:40:17.661Z,102148.86
2019-04-11T02:42:47.599Z,102145.89
2019-04-11T02:45:35.523Z,102144.72
2019-04-11T02:47:50.971Z,102152.65
2019-04-11T02:50:21.968Z,102153.10
2019-04-11T02:52:52.049Z,102158.69
2019-04-11T02:55:22.877Z,102152.37
2019-04-11T02:57:52.320Z,102153.74
2019-04-11T03:00:21.664Z,102156.74
2019-04-11T03:02:53.109Z,102157.70
2019-04-11T03:05:22.323Z,102154.45
2019-04-11T03:07:51.702Z,102149.66
2019-04-11T03:10:21.416Z,102156.59
2019-04-11T03:12:52.536Z,102154.45
2019-04-11T03:15:37.673Z,102157.03
2019-04-11T03:17:57.687Z,102153.01
2019-04-11T03:20:32.557Z,102159.42
2019-04-11T03:23:00.394Z,102156.59
2019-04-11T03:25:28.390Z,102164.28
2019-04-11T03:28:01.240Z,102162.87
2019-04-11T03:30:52.083Z,102166.92
2019-04-11T03:33:55.586Z,102166.34
2019-04-11T03:36:22.135Z,102163.82
2019-04-11T03:38:33.091Z,102173.17
2019-04-11T03:40:55.264Z,102169.22
2019-04-11T03:43:22.706Z,102166.94
2019-04-11T03:46:01.869Z,102172.37
2019-04-11T03:48:23.585Z,102177.50
2019-04-11T03:50:40.200Z,102170.00
2019-04-11T03:53:11.423Z,102180.34
2019-04-11T03:55:41.084Z,102174.48
2019-04-11T03:58:10.550Z,102182.94
2019-04-11T04:00:43.655Z,102181.97
2019-04-11T04:03:13.445Z,102181.81
2019-04-11T04:05:44.286Z,102186.72
2019-04-11T04:08:14.396Z,102190.20
2019-04-11T04:10:45.580Z,102187.69
2019-04-11T04:13:18.925Z,102186.56
2019-04-11T04:16:10.404Z,102184.45
2019-04-11T04:18:32.141Z,102189.37
2019-04-11T04:21:04.311Z,102189.69
2019-04-11T04:23:37.845Z,102191.38
2019-04-11T04:26:10.058Z,102189.27
2019-04-11T04:28:40.788Z,102184.35
2019-04-11T04:31:11.469Z,102182.92
2019-04-11T04:33:42.802Z,102190.89
2019-04-11T04:36:13.864Z,102191.38
2019-04-11T04:38:44.520Z,102193.70
2019-04-11T04:41:28.294Z,102198.39
2019-04-11T04:43:48.095Z,102203.19
2019-04-11T04:46:34.717Z,102202.33
2019-04-11T04:48:51.025Z,102210.63
2019-04-11T04:51:20.686Z,102204.08
2019-04-11T04:53:52.133Z,102207.19
2019-04-11T04:56:26.034Z,102216.95
2019-04-11T04:58:54.040Z,102210.63
2019-04-11T05:01:23.887Z,102209.98
2019-04-11T05:03:54.064Z,102216.68
2019-04-11T05:06:24.119Z,102210.16
2019-04-11T05:08:53.675Z,102219.23
2019-04-11T05:11:23.311Z,102217.38
2019-04-11T05:13:54.342Z,102222.98
2019-04-11T05:16:24.019Z,102218.86
2019-04-11T05:18:54.652Z,102218.17
2019-04-11T05:21:25.348Z,102220.77
2019-04-11T05:23:56.684Z,102221.18
2019-04-11T05:26:26.157Z,102222.84
2019-04-11T05:28:55.658Z,102219.89
2019-04-11T05:31:24.938Z,102222.98
2019-04-11T05:33:54.248Z,102218.32
2019-04-11T05:36:24.719Z,102229.17
2019-04-11T05:38:54.739Z,102230.15
2019-04-11T05:41:24.710Z,102234.78
2019-04-11T05:43:55.734Z,102236.98
2019-04-11T05:46:33.479Z,102241.02
2019-04-11T05:49:04.225Z,102246.95
2019-04-11T05:51:40.998Z,102249.67
2019-04-11T05:54:07.754Z,102254.55
2019-04-11T05:56:37.557Z,102254.55
2019-04-11T05:59:09.455Z,102263.71
2019-04-11T06:01:44.604Z,102257.79
2019-04-11T06:04:32.294Z,102267.80
2019-04-11T06:07:08.425Z,102267.39
2019-04-11T06:09:41.430Z,102272.68
2019-04-11T06:12:17.593Z,102280.87
2019-04-11T06:14:49.290Z,102284.78
2019-04-11T06:17:19.932Z,102288.63
2019-04-11T06:20:08.241Z,102289.66
2019-04-11T06:22:40.132Z,102283.41
2019-04-11T06:25:18.818Z,102290.23
2019-04-11T06:27:49.635Z,102286.84
2019-04-11T06:30:21.042Z,102286.95
2019-04-11T06:32:54.664Z,102286.39
2019-04-11T06:35:26.149Z,102287.95
2019-04-11T06:38:14.151Z,102284.73
2019-04-11T06:40:46.122Z,102295.04
2019-04-11T06:43:23.659Z,102304.08
2019-04-11T06:45:57.253Z,102303.12
2019-04-11T06:48:40.249Z,102304.34
2019-04-11T06:51:11.616Z,102313.69
2019-04-11T06:53:44.069Z,102314.39
2019-04-11T06:56:19.079Z,102313.20
2019-04-11T06:58:54.124Z,102310.89
2019-04-11T07:01:25.863Z,102314.59
2019-04-11T07:03:57.474Z,102315.96
2019-04-11T07:06:29.398Z,102319.95
2019-04-11T07:09:12.545Z,102318.55
2019-04-11T07:11:50.709Z,102322.91
2019-04-11T07:14:38.325Z,102317.52
2019-04-11T07:17:25.408Z,102320.27
2019-04-11T07:20:13.055Z,102317.92
2019-04-11T07:23:01.604Z,102314.58
2019-04-11T07:25:47.941Z,102315.45
2019-04-11T07:28:35.755Z,102311.12
2019-04-11T07:31:10.551Z,102317.55
2019-04-11T07:34:00.864Z,102313.19
2019-04-11T07:36:48.390Z,102320.88
2019-04-11T07:39:25.649Z,102314.78
2019-04-11T07:42:00.377Z,102323.90
2019-04-11T07:44:34.216Z,102325.63
2019-04-11T07:47:17.244Z,102329.71
2019-04-11T07:49:42.893Z,102337.74
2019-04-11T07:52:22.401Z,102330.89
2019-04-11T07:54:51.683Z,102336.30
2019-04-11T07:57:26.335Z,102329.88
2019-04-11T08:00:08.249Z,102332.86
2019-04-11T08:02:40.495Z,102337.66
2019-04-11T08:05:30.412Z,102336.98
2019-04-11T08:08:17.940Z,102338.58
2019-04-11T08:10:55.215Z,102335.49
2019-04-11T08:13:30.357Z,102341.42
2019-04-11T08:16:14.667Z,102339.09
2019-04-11T08:18:51.595Z,102348.69
2019-04-11T08:21:38.989Z,102343.01
2019-04-11T08:24:10.059Z,102350.11
2019-04-11T08:26:53.116Z,102352.33
2019-04-11T08:29:24.288Z,102349.39
2019-04-11T08:32:11.807Z,102353.05
2019-04-11T08:34:43.732Z,102353.45
2019-04-11T08:37:31.712Z,102358.53
2019-04-11T08:40:01.833Z,102358.17
2019-04-11T08:42:50.856Z,102363.00
2019-04-11T08:45:22.163Z,102363.66
2019-04-11T08:47:55.631Z,102366.09
2019-04-11T08:50:28.263Z,102357.61
2019-04-11T08:53:02.561Z,102368.77
2019-04-11T08:55:45.604Z,102370.70
2019-04-11T08:58:06.539Z,102373.45
2019-04-11T09:00:40.083Z,102380.42
2019-04-11T09:03:26.016Z,102373.11
2019-04-11T09:06:06.332Z,102376.11
2019-04-11T09:08:54.407Z,102381.72
2019-04-11T09:11:25.675Z,102380.78
2019-04-11T09:14:06.112Z,102374.59
2019-04-11T09:16:56.238Z,102370.75
2019-04-11T09:19:27.338Z,102381.23
2019-04-11T09:22:17.118Z,102386.25
2019-04-11T09:24:51.051Z,102380.64
2019-04-11T09:27:25.139Z,102383.64
2019-04-11T09:30:02.508Z,102385.08
2019-04-11T09:32:51.517Z,102381.86
2019-04-11T09:35:25.042Z,102375.87
2019-04-11T09:37:56.142Z,102384.31
2019-04-11T09:40:36.280Z,102380.75
2019-04-11T09:43:09.885Z,102376.22
2019-04-11T09:45:47.986Z,102382.91
2019-04-11T09:48:34.982Z,102380.88
2019-04-11T09:51:07.335Z,102382.32
2019-04-11T09:53:38.836Z,102381.83
2019-04-11T09:56:27.122Z,102384.85
2019-04-11T09:58:58.258Z,102379.67
2019-04-11T10:01:38.277Z,102389.37
2019-04-11T10:04:09.342Z,102380.96
2019-04-11T10:06:48.700Z,102387.21
2019-04-11T10:09:18.106Z,102388.45
2019-04-11T10:12:06.535Z,102384.74
2019-04-11T10:14:35.845Z,102392.86
2019-04-11T10:17:26.000Z,102383.36
2019-04-11T10:19:54.305Z,102384.36
2019-04-11T10:22:32.214Z,102394.19
2019-04-11T10:25:08.847Z,102382.52
2019-04-11T10:27:49.038Z,102382.53
2019-04-11T10:30:36.302Z,102381.14
2019-04-11T10:33:17.030Z,102379.11
2019-04-11T10:36:03.277Z,102365.97
2019-04-11T10:38:33.343Z,102372.39
2019-04-11T10:41:04.401Z,102369.02
2019-04-11T10:43:34.451Z,102368.38
2019-04-11T10:46:17.460Z,102373.37
2019-04-11T10:48:49.146Z,102367.53
2019-04-11T10:51:38.194Z,102367.34
2019-04-11T10:54:08.576Z,102368.53
2019-04-11T10:56:55.813Z,102367.97
2019-04-11T10:59:27.964Z,102371.63
2019-04-11T11:02:00.171Z,102368.93
2019-04-11T11:04:32.455Z,102366.64
2019-04-11T11:07:04.361Z,102363.75
2019-04-11T11:09:44.398Z,102367.86
2019-04-11T11:12:21.329Z,102368.94
2019-04-11T11:14:55.384Z,102370.16
2019-04-11T11:18:00.995Z,102376.67
2019-04-11T11:20:38.644Z,102362.38
2019-04-11T11:23:22.912Z,102370.00
2019-04-11T11:26:09.135Z,102369.45
2019-04-11T11:28:50.819Z,102375.37
2019-04-11T11:31:24.864Z,102379.11
2019-04-11T11:33:56.542Z,102379.53
2019-04-11T11:36:43.764Z,102384.08
2019-04-11T11:39:19.241Z,102382.00
2019-04-11T11:42:06.505Z,102395.41
2019-04-11T11:44:55.226Z,102383.49
2019-04-11T11:47:43.213Z,102377.77
2019-04-11T11:50:19.831Z,102381.33
2019-04-11T11:53:09.931Z,102370.20
2019-04-11T11:55:38.940Z,102373.82
2019-04-11T11:58:22.029Z,102369.82
2019-04-11T12:00:55.368Z,102374.13
2019-04-11T12:03:32.960Z,102363.49
2019-04-11T12:06:05.295Z,102362.75
2019-04-11T12:08:56.080Z,102369.76
2019-04-11T12:11:26.328Z,102361.80
2019-04-11T12:14:09.752Z,102364.14
2019-04-11T12:16:59.531Z,102360.84
2019-04-11T12:19:26.899Z,102351.71
2019-04-11T12:21:57.985Z,102352.70
2019-04-11T12:24:41.064Z,102356.23
2019-04-11T12:27:18.538Z,102356.23
2019-04-11T12:29:53.476Z,102351.52
2019-04-11T12:32:24.431Z,102357.61
2019-04-11T12:34:56.110Z,102354.55
2019-04-11T12:37:29.826Z,102350.41
2019-04-11T12:40:17.281Z,102346.78
2019-04-11T12:42:46.931Z,102344.60
2019-04-11T12:45:30.234Z,102343.64
2019-04-11T12:47:59.742Z,102334.34
2019-04-11T12:50:36.947Z,102342.28
2019-04-11T12:53:08.534Z,102344.59
2019-04-11T12:55:51.627Z,102343.03
2019-04-11T12:58:25.482Z,102343.03
2019-04-11T13:01:12.994Z,102340.17
2019-04-11T13:03:46.535Z,102351.73
2019-04-11T13:06:35.111Z,102337.98
2019-04-11T13:09:20.429Z,102346.83
2019-04-11T13:11:51.392Z,102350.11
2019-04-11T13:14:25.337Z,102338.00
2019-04-11T13:16:56.402Z,102331.44
2019-04-11T13:19:44.077Z,102333.17
2019-04-11T13:22:15.042Z,102327.37
2019-04-11T13:24:54.747Z,102325.27
2019-04-11T13:27:25.772Z,102315.70
2019-04-11T13:30:12.794Z,102316.41
2019-04-11T13:32:46.627Z,102306.27
2019-04-11T13:35:21.649Z,102303.59
2019-04-11T13:38:08.644Z,102308.66
2019-04-11T13:40:45.625Z,102310.49
2019-04-11T13:43:22.686Z,102300.69
2019-04-11T13:45:56.403Z,102308.37
2019-04-11T13:48:44.900Z,102310.28
2019-04-11T13:51:18.629Z,102316.75
2019-04-11T13:54:06.247Z,102319.47
2019-04-11T13:56:49.343Z,102311.55
2019-04-11T13:59:35.607Z,102314.48
2019-04-11T14:02:17.707Z,102308.87
2019-04-11T14:05:03.888Z,102304.40
2019-04-11T14:07:34.798Z,102307.34
2019-04-11T14:10:06.887Z,102304.60
2019-04-11T14:12:36.819Z,102306.72
2019-04-11T14:15:08.609Z,102297.63
2019-04-11T14:17:55.757Z,102299.03
2019-04-11T14:20:35.787Z,102292.81
2019-04-11T14:23:15.195Z,102284.44
2019-04-11T14:25:53.473Z,102272.03
2019-04-11T14:28:39.300Z,102284.06
2019-04-11T14:31:16.293Z,102282.50
2019-04-11T14:34:03.671Z,102287.47
2019-04-11T14:36:49.724Z,102272.65
2019-04-11T14:39:20.807Z,102275.59
2019-04-11T14:42:11.748Z,102278.78
2019-04-11T14:44:42.146Z,102272.81
2019-04-11T14:47:29.715Z,102272.50
2019-04-11T14:50:01.093Z,102265.67
2019-04-11T14:52:48.364Z,102257.52
2019-04-11T14:55:19.622Z,102265.09
2019-04-11T14:58:06.869Z,102265.94
2019-04-11T15:00:38.480Z,102260.95
2019-04-11T15:03:25.918Z,102261.39
2019-04-11T15:05:58.702Z,102271.22
2019-04-11T15:08:38.747Z,102262.67
2019-04-11T15:11:09.835Z,102270.00
2019-04-11T15:13:41.041Z,102261.30
2019-04-11T15:16:11.935Z,102262.16
2019-04-11T15:18:42.982Z,102261.61
2019-04-11T15:21:30.169Z,102259.70
2019-04-11T15:23:59.494Z,102257.30
2019-04-11T15:26:30.504Z,102260.70
2019-04-11T15:29:01.448Z,102257.64
2019-04-11T15:31:49.614Z,102251.70
2019-04-11T15:34:37.492Z,102250.29
2019-04-11T15:37:28.116Z,102251.70
2019-04-11T15:40:07.876Z,102250.26
2019-04-11T15:42:41.962Z,102247.71
2019-04-11T15:45:19.035Z,102249.98
2019-04-11T15:47:52.794Z,102246.17
2019-04-11T15:50:40.280Z,102247.72
2019-04-11T15:53:09.559Z,102255.28
2019-04-11T15:55:43.473Z,102250.87
2019-04-11T15:58:13.554Z,102251.92
2019-04-11T16:00:44.679Z,102250.11
2019-04-11T16:03:14.239Z,102259.44
2019-04-11T16:06:02.131Z,102257.98
2019-04-11T16:08:33.245Z,102254.64
2019-04-11T16:11:06.975Z,102260.03
2019-04-11T16:13:49.739Z,102259.31
2019-04-11T16:16:20.818Z,102248.42
2019-04-11T16:18:57.892Z,102252.36
2019-04-11T16:21:39.967Z,102256.69
2019-04-11T16:24:27.613Z,102250.74
2019-04-11T16:27:05.092Z,102252.85
2019-04-11T16:29:44.858Z,102247.08
2019-04-11T16:32:18.972Z,102256.41
2019-04-11T16:34:54.385Z,102252.80
2019-04-11T16:37:21.200Z,102254.63
2019-04-11T16:40:10.088Z,102253.88
2019-04-11T16:42:41.312Z,102258.38
2019-04-11T16:45:29.871Z,102254.34
2019-04-11T16:48:05.266Z,102252.98
2019-04-11T16:50:34.814Z,102247.98
2019-04-11T16:53:04.286Z,102242.97
2019-04-11T16:55:36.538Z,102241.56
2019-04-11T16:58:04.975Z,102241.86
2019-04-11T17:00:36.007Z,102244.58
2019-04-11T17:03:05.434Z,102243.90
2019-04-11T17:05:35.406Z,102245.77
2019-04-11T17:08:06.337Z,102244.61
2019-04-11T17:10:56.695Z,102246.75
2019-04-11T17:13:25.983Z,102245.47
2019-04-11T17:15:55.365Z,102247.30
2019-04-11T17:18:24.803Z,102243.53
2019-04-11T17:20:54.118Z,102252.00
2019-04-11T17:23:23.574Z,102254.20
2019-04-11T17:25:53.803Z,102250.73
2019-04-11T17:28:24.319Z,102259.60
2019-04-11T17:30:55.767Z,102253.92
2019-04-11T17:33:27.785Z,102256.97
2019-04-11T17:35:56.195Z,102255.73
2019-04-11T17:38:25.553Z,102252.38
2019-04-11T17:40:54.918Z,102254.43
2019-04-11T17:43:24.324Z,102251.19
2019-04-11T17:45:56.976Z,102263.69
2019-04-11T17:48:24.902Z,102263.27
2019-04-11T17:50:55.093Z,102257.63
2019-04-11T17:53:24.875Z,102266.93
2019-04-11T17:55:55.089Z,102267.39
2019-04-11T17:58:27.053Z,102264.75
2019-04-11T18:00:57.281Z,102267.53
2019-04-11T18:03:26.568Z,102270.08
2019-04-11T18:05:55.873Z,102265.12
2019-04-11T18:08:25.466Z,102272.14
2019-04-11T18:10:56.021Z,102262.14
2019-04-11T18:13:30.566Z,102271.41
2019-04-11T18:16:00.819Z,102270.75
2019-04-11T18:18:28.954Z,102266.01
2019-04-11T18:20:58.452Z,102267.70
2019-04-11T18:23:28.061Z,102269.83
2019-04-11T18:25:57.458Z,102278.09
2019-04-11T18:28:26.814Z,102278.73
2019-04-11T18:30:56.275Z,102277.19
2019-04-11T18:33:25.669Z,102281.65
2019-04-11T18:35:55.026Z,102286.11
2019-04-11T18:38:25.475Z,102283.53
2019-04-11T18:40:54.957Z,102284.49
2019-04-11T18:43:25.563Z,102287.70
2019-04-11T18:45:55.118Z,102293.61
2019-04-11T18:48:24.533Z,102290.83
2019-04-11T18:50:53.982Z,102289.35
2019-04-11T18:53:23.387Z,102296.15
2019-04-11T18:55:52.794Z,102293.82
2019-04-11T18:58:22.222Z,102293.98
2019-04-11T19:00:51.718Z,102297.12
2019-04-11T19:03:21.186Z,102302.66
2019-04-11T19:05:50.533Z,102307.19
2019-04-11T19:08:20.127Z,102306.56
2019-04-11T19:10:49.491Z,102307.95
2019-04-11T19:13:20.510Z,102303.49
2019-04-11T19:15:49.821Z,102308.98
2019-04-11T19:18:19.278Z,102305.18
2019-04-11T19:20:50.397Z,102315.02
2019-04-11T19:23:19.730Z,102314.78
2019-04-11T19:25:49.006Z,102317.36
2019-04-11T19:28:19.899Z,102320.61
2019-04-11T19:30:49.225Z,102326.16
2019-04-11T19:33:19.270Z,102320.12
2019-04-11T19:35:49.632Z,102321.52
2019-04-11T19:38:30.847Z,102322.20
2019-04-11T19:41:00.338Z,102328.22
2019-04-11T19:43:29.633Z,102325.67
2019-04-11T19:45:59.343Z,102334.02
2019-04-11T19:48:28.684Z,102338.22
2019-04-11T19:50:58.969Z,102325.59
2019-04-11T19:53:32.877Z,102332.77
2019-04-11T19:56:16.911Z,102329.36
2019-04-11T19:58:46.836Z,102328.09
2019-04-11T20:01:16.410Z,102331.69
2019-04-11T20:03:47.023Z,102336.41
2019-04-11T20:06:16.454Z,102337.48
2019-04-11T20:08:47.704Z,102332.28
2019-04-11T20:11:17.924Z,102332.75
2019-04-11T20:13:47.280Z,102333.38
2019-04-11T20:16:16.569Z,102335.23
2019-04-11T20:18:51.351Z,102336.17
2019-04-11T20:21:17.036Z,102336.27
2019-04-11T20:23:46.556Z,102336.32
2019-04-11T20:26:19.981Z,102334.94
2019-04-11T20:28:48.211Z,102332.56
2019-04-11T20:31:18.023Z,102338.70
2019-04-11T20:33:47.349Z,102339.86
2019-04-11T20:36:16.614Z,102333.91
2019-04-11T20:38:47.150Z,102338.77
2019-04-11T20:41:16.537Z,102340.25
2019-04-11T20:43:45.825Z,102340.36
2019-04-11T20:46:15.481Z,102344.87
2019-04-11T20:48:45.094Z,102347.07
2019-04-11T20:51:14.435Z,102344.55
2019-04-11T20:53:43.734Z,102352.02
2019-04-11T20:56:23.588Z,102349.50
2019-04-11T20:58:44.691Z,102349.84
2019-04-11T21:01:14.269Z,102344.55
2019-04-11T21:03:43.592Z,102349.48
2019-04-11T21:06:12.886Z,102342.42
2019-04-11T21:08:42.235Z,102351.27
2019-04-11T21:11:11.545Z,102354.56
2019-04-11T21:13:41.164Z,102358.55
2019-04-11T21:16:10.525Z,102351.39
2019-04-11T21:18:39.892Z,102352.16
2019-04-11T21:21:09.193Z,102358.03
2019-04-11T21:23:38.803Z,102351.52
2019-04-11T21:26:08.099Z,102355.06
2019-04-11T21:28:37.465Z,102358.02
2019-04-11T21:31:07.024Z,102358.02
2019-04-11T21:33:36.320Z,102347.63
2019-04-11T21:36:05.701Z,102355.64
2019-04-11T21:38:35.281Z,102357.02
2019-04-11T21:41:06.090Z,102364.41
2019-04-11T21:43:36.204Z,102362.77
2019-04-11T21:46:06.859Z,102359.95
2019-04-11T21:48:37.118Z,102362.83
2019-04-11T21:51:11.051Z,102371.31
2019-04-11T21:53:37.489Z,102369.45
2019-04-11T21:56:06.862Z,102375.91
2019-04-11T21:58:37.253Z,102374.92
2019-04-11T22:01:09.455Z,102374.58
2019-04-11T22:03:38.604Z,102377.22
2019-04-11T22:06:07.849Z,102377.31
2019-04-11T22:08:37.221Z,102385.05
2019-04-11T22:11:09.906Z,102389.13
2019-04-11T22:13:40.435Z,102383.94
2019-04-11T22:16:13.485Z,102386.70
2019-04-11T22:18:40.278Z,102383.81
2019-04-11T22:21:09.650Z,102389.09
2019-04-11T22:23:48.251Z,102391.52
2019-04-11T22:26:09.923Z,102387.09
2019-04-11T22:28:39.616Z,102387.80
2019-04-11T22:31:09.413Z,102388.66
2019-04-11T22:33:43.417Z,102388.66
2019-04-11T22:36:12.798Z,102396.27
2019-04-11T22:38:42.172Z,102396.27
2019-04-11T22:41:11.486Z,102391.17
2019-04-11T22:43:41.010Z,102396.94
2019-04-11T22:46:20.312Z,102404.30
2019-04-11T22:48:43.036Z,102403.41
2019-04-11T22:51:12.403Z,102402.09
2019-04-11T22:53:43.326Z,102406.66
2019-04-11T22:56:12.841Z,102400.01
2019-04-11T22:58:43.514Z,102401.72
2019-04-11T23:01:16.626Z,102407.33
2019-04-11T23:03:49.279Z,102404.74
2019-04-11T23:06:18.660Z,102407.84
2019-04-11T23:08:48.978Z,102410.10
2019-04-11T23:11:19.131Z,102410.10
2019-04-11T23:13:48.579Z,102412.02
2019-04-11T23:16:18.033Z,102408.55
2019-04-11T23:18:47.480Z,102405.89
2019-04-11T23:21:16.859Z,102412.31
2019-04-11T23:23:46.159Z,102415.36
2019-04-11T23:26:15.676Z,102410.21
2019-04-11T23:28:46.719Z,102413.22
2019-04-11T23:31:20.104Z,102418.28
2019-04-11T23:33:51.798Z,102417.22
2019-04-11T23:36:21.314Z,102414.64
2019-04-11T23:38:52.605Z,102414.64
2019-04-11T23:41:22.219Z,102412.97
2019-04-11T23:43:51.491Z,102415.89
2019-04-11T23:46:21.387Z,102418.35
2019-04-11T23:48:55.486Z,102426.38
2019-04-11T23:51:26.306Z,102420.16
2019-04-11T23:53:54.342Z,102424.17
2019-04-11T23:56:23.643Z,102424.88
2019-04-11T23:58:53.125Z,102429.63
